createdAt,value
2023-02-03T00:00:38.682Z,7.93
2023-02-03T00:01:38.832Z,7.92
2023-02-03T00:02:38.745Z,7.93
2023-02-03T00:03:38.799Z,7.93
2023-02-03T00:04:38.646Z,7.95
2023-02-03T00:05:38.615Z,7.95
2023-02-03T00:06:38.616Z,7.93
2023-02-03T00:07:38.603Z,7.93
2023-02-03T00:08:38.772Z,7.93
2023-02-03T00:09:38.549Z,7.97
2023-02-03T00:10:38.522Z,7.97
2023-02-03T00:11:38.562Z,7.95
2023-02-03T00:12:38.574Z,7.95
2023-02-03T00:13:38.530Z,7.95
2023-02-03T00:14:38.671Z,7.95
2023-02-03T00:15:38.460Z,7.95
2023-02-03T00:16:38.496Z,7.97
2023-02-03T00:17:38.436Z,7.95
2023-02-03T00:18:38.423Z,7.93
2023-02-03T00:19:38.578Z,7.95
2023-02-03T00:20:38.422Z,7.95
2023-02-03T00:21:38.381Z,7.95
2023-02-03T00:22:38.556Z,7.93
2023-02-03T00:23:38.349Z,7.93
2023-02-03T00:24:38.359Z,7.95
2023-02-03T00:25:38.328Z,7.95
2023-02-03T00:26:38.489Z,7.95
2023-02-03T00:27:38.333Z,7.95
2023-02-03T00:28:38.469Z,7.95
2023-02-03T00:29:38.284Z,7.95
2023-02-03T00:30:38.267Z,7.93
2023-02-03T00:31:38.585Z,7.95
2023-02-03T00:32:38.267Z,7.95
2023-02-03T00:33:38.227Z,7.97
2023-02-03T00:34:38.394Z,7.95
2023-02-03T00:35:38.211Z,7.97
2023-02-03T00:36:38.191Z,7.97
2023-02-03T00:37:38.189Z,7.97
2023-02-03T00:38:38.156Z,7.97
2023-02-03T00:39:38.148Z,7.97
2023-02-03T00:40:38.141Z,7.95
2023-02-03T00:41:38.126Z,7.95
2023-02-03T00:42:38.307Z,7.97
2023-02-03T00:43:38.095Z,7.98
2023-02-03T00:44:38.262Z,7.98
2023-02-03T00:45:38.102Z,7.98
2023-02-03T00:46:38.080Z,8.00
2023-02-03T00:47:38.065Z,8.01
2023-02-03T00:48:38.056Z,8.01
2023-02-03T00:49:38.204Z,8.01
2023-02-03T00:50:38.315Z,8.01
2023-02-03T00:51:38.011Z,8.01
2023-02-03T00:52:37.982Z,8.00
2023-02-03T00:53:37.973Z,8.01
2023-02-03T00:54:37.955Z,8.01
2023-02-03T00:55:38.128Z,8.01
2023-02-03T00:56:37.943Z,8.00
2023-02-03T00:57:37.926Z,7.98
2023-02-03T00:58:37.903Z,8.01
2023-02-03T00:59:37.902Z,8.00
2023-02-03T01:00:38.061Z,8.00
2023-02-03T01:01:37.946Z,8.00
2023-02-03T01:02:37.922Z,8.01
2023-02-03T01:03:37.873Z,8.02
2023-02-03T01:04:37.834Z,8.02
2023-02-03T01:05:37.980Z,8.01
2023-02-03T01:06:37.841Z,8.01
2023-02-03T01:07:37.981Z,8.02
2023-02-03T01:08:37.780Z,8.04
2023-02-03T01:09:37.761Z,8.01
2023-02-03T01:10:37.779Z,8.02
2023-02-03T01:11:37.743Z,8.02
2023-02-03T01:12:37.910Z,8.02
2023-02-03T01:13:37.736Z,8.04
2023-02-03T01:14:37.704Z,8.04
2023-02-03T01:15:37.691Z,8.04
2023-02-03T01:16:37.711Z,8.04
2023-02-03T01:17:37.863Z,8.04
2023-02-03T01:18:37.677Z,8.05
2023-02-03T01:19:37.645Z,8.04
2023-02-03T01:20:37.627Z,8.05
2023-02-03T01:21:37.615Z,8.07
2023-02-03T01:22:37.606Z,8.07
2023-02-03T01:23:37.757Z,8.08
2023-02-03T01:24:37.604Z,8.08
2023-02-03T01:25:37.728Z,8.07
2023-02-03T01:26:37.549Z,8.08
2023-02-03T01:27:37.607Z,8.08
2023-02-03T01:28:37.526Z,8.08
2023-02-03T01:29:37.524Z,8.07
2023-02-03T01:30:37.725Z,8.08
2023-02-03T01:31:37.548Z,8.07
2023-02-03T01:32:37.477Z,8.08
2023-02-03T01:33:37.481Z,8.07
2023-02-03T01:34:37.647Z,8.08
2023-02-03T01:35:37.653Z,8.10
2023-02-03T01:36:37.433Z,8.08
2023-02-03T01:37:37.405Z,8.08
2023-02-03T01:38:37.387Z,8.10
2023-02-03T01:39:37.413Z,8.10
2023-02-03T01:40:37.645Z,8.10
2023-02-03T01:41:37.355Z,8.10
2023-02-03T01:42:37.333Z,8.11
2023-02-03T01:43:37.339Z,8.11
2023-02-03T01:44:37.535Z,8.11
2023-02-03T01:45:37.305Z,8.15
2023-02-03T01:46:37.282Z,8.15
2023-02-03T01:47:37.286Z,8.15
2023-02-03T01:48:37.264Z,8.15
2023-02-03T01:49:37.256Z,8.15
2023-02-03T01:50:37.438Z,8.15
2023-02-03T01:51:37.233Z,8.12
2023-02-03T01:52:37.211Z,8.12
2023-02-03T01:53:37.203Z,8.15
2023-02-03T01:54:37.362Z,8.15
2023-02-03T01:55:37.197Z,8.15
2023-02-03T01:56:37.169Z,8.15
2023-02-03T01:57:37.150Z,8.15
2023-02-03T01:58:37.131Z,8.16
2023-02-03T01:59:37.127Z,8.15
2023-02-03T02:00:37.283Z,8.16
2023-02-03T02:01:37.277Z,8.16
2023-02-03T02:02:37.137Z,8.16
2023-02-03T02:03:37.077Z,8.15
2023-02-03T02:04:37.064Z,8.15
2023-02-03T02:05:37.219Z,8.15
2023-02-03T02:06:37.027Z,8.16
2023-02-03T02:07:37.019Z,8.16
2023-02-03T02:08:36.999Z,8.15
2023-02-03T02:09:36.998Z,8.16
2023-02-03T02:10:37.198Z,8.15
2023-02-03T02:11:36.970Z,8.15
2023-02-03T02:12:36.951Z,8.15
2023-02-03T02:13:36.943Z,8.15
2023-02-03T02:14:36.937Z,8.16
2023-02-03T02:15:36.974Z,8.15
2023-02-03T02:16:36.901Z,8.12
2023-02-03T02:17:36.887Z,8.15
2023-02-03T02:18:36.880Z,8.15
2023-02-03T02:19:37.176Z,8.16
2023-02-03T02:20:36.848Z,8.15
2023-02-03T02:21:37.027Z,8.16
2023-02-03T02:22:36.826Z,8.15
2023-02-03T02:23:36.815Z,8.15
2023-02-03T02:24:36.804Z,8.19
2023-02-03T02:25:36.794Z,8.18
2023-02-03T02:26:36.944Z,8.19
2023-02-03T02:27:37.014Z,8.20
2023-02-03T02:28:36.753Z,8.20
2023-02-03T02:29:36.734Z,8.20
2023-02-03T02:30:36.736Z,8.19
2023-02-03T02:31:36.948Z,8.20
2023-02-03T02:32:36.874Z,8.19
2023-02-03T02:33:36.682Z,8.22
2023-02-03T02:34:36.662Z,8.22
2023-02-03T02:35:36.664Z,8.23
2023-02-03T02:36:36.835Z,8.23
2023-02-03T02:37:36.692Z,8.23
2023-02-03T02:38:36.631Z,8.23
2023-02-03T02:39:36.611Z,8.23
2023-02-03T02:40:36.594Z,8.22
2023-02-03T02:41:36.584Z,8.23
2023-02-03T02:42:36.747Z,8.25
2023-02-03T02:43:36.569Z,8.26
2023-02-03T02:44:36.553Z,8.28
2023-02-03T02:45:36.535Z,8.28
2023-02-03T02:46:36.537Z,8.25
2023-02-03T02:47:36.686Z,8.25
2023-02-03T02:48:36.501Z,8.26
2023-02-03T02:49:36.489Z,8.26
2023-02-03T02:50:36.461Z,8.26
2023-02-03T02:51:36.450Z,8.28
2023-02-03T02:52:36.432Z,8.28
2023-02-03T02:53:36.431Z,8.28
2023-02-03T02:54:36.594Z,8.28
2023-02-03T02:55:36.397Z,8.28
2023-02-03T02:56:36.386Z,8.28
2023-02-03T02:57:36.375Z,8.28
2023-02-03T02:58:36.359Z,8.26
2023-02-03T02:59:36.398Z,8.26
2023-02-03T03:00:36.332Z,8.25
2023-02-03T03:01:36.361Z,8.26
2023-02-03T03:02:36.317Z,8.25
2023-02-03T03:03:36.314Z,8.25
2023-02-03T03:04:36.470Z,8.25
2023-02-03T03:05:36.277Z,8.26
2023-02-03T03:06:36.278Z,8.26
2023-02-03T03:07:36.246Z,8.26
2023-02-03T03:08:36.234Z,8.26
2023-02-03T03:09:36.417Z,8.26
2023-02-03T03:10:36.208Z,8.28
2023-02-03T03:11:36.227Z,8.28
2023-02-03T03:12:36.174Z,8.28
2023-02-03T03:13:36.180Z,8.28
2023-02-03T03:14:36.154Z,8.26
2023-02-03T03:15:36.379Z,8.26
2023-02-03T03:16:36.136Z,8.26
2023-02-03T03:17:36.301Z,8.25
2023-02-03T03:18:36.108Z,8.25
2023-02-03T03:19:36.110Z,8.26
2023-02-03T03:20:36.092Z,8.26
2023-02-03T03:21:36.242Z,8.28
2023-02-03T03:22:36.054Z,8.23
2023-02-03T03:23:36.042Z,8.25
2023-02-03T03:24:36.024Z,8.23
2023-02-03T03:25:36.291Z,8.22
2023-02-03T03:26:36.194Z,8.22
2023-02-03T03:27:36.008Z,8.22
2023-02-03T03:28:35.980Z,8.22
2023-02-03T03:29:35.972Z,8.22
2023-02-03T03:30:36.159Z,8.20
2023-02-03T03:31:36.309Z,8.22
2023-02-03T03:32:35.935Z,8.23
2023-02-03T03:33:35.916Z,8.23
2023-02-03T03:34:35.898Z,8.23
2023-02-03T03:35:35.879Z,8.22
2023-02-03T03:36:36.051Z,8.22
2023-02-03T03:37:35.854Z,8.23
2023-02-03T03:38:35.841Z,8.23
2023-02-03T03:39:35.836Z,8.22
2023-02-03T03:40:35.851Z,8.22
2023-02-03T03:41:35.984Z,8.22
2023-02-03T03:42:35.797Z,8.22
2023-02-03T03:43:35.785Z,8.22
2023-02-03T03:44:35.769Z,8.20
2023-02-03T03:45:35.758Z,8.20
2023-02-03T03:46:35.992Z,8.20
2023-02-03T03:47:35.727Z,8.22
2023-02-03T03:48:35.897Z,8.22
2023-02-03T03:49:35.718Z,8.20
2023-02-03T03:50:35.684Z,8.23
2023-02-03T03:51:35.688Z,8.22
2023-02-03T03:52:35.665Z,8.22
2023-02-03T03:53:35.835Z,8.22
2023-02-03T03:54:35.641Z,8.20
2023-02-03T03:55:35.622Z,8.20
2023-02-03T03:56:35.606Z,8.22
2023-02-03T03:57:35.608Z,8.20
2023-02-03T03:58:35.583Z,8.20
2023-02-03T03:59:35.762Z,8.20
2023-02-03T04:00:35.594Z,8.20
2023-02-03T04:01:35.642Z,8.20
2023-02-03T04:02:35.642Z,8.22
2023-02-03T04:03:35.526Z,8.19
2023-02-03T04:04:35.518Z,8.20
2023-02-03T04:05:35.674Z,8.20
2023-02-03T04:06:35.482Z,8.19
2023-02-03T04:07:35.476Z,8.19
2023-02-03T04:08:35.450Z,8.19
2023-02-03T04:09:35.624Z,8.20
2023-02-03T04:10:35.442Z,8.22
2023-02-03T04:11:35.593Z,8.23
2023-02-03T04:12:35.401Z,8.23
2023-02-03T04:13:35.413Z,8.22
2023-02-03T04:14:35.554Z,8.23
2023-02-03T04:15:35.392Z,8.22
2023-02-03T04:16:35.393Z,8.22
2023-02-03T04:17:35.348Z,8.22
2023-02-03T04:18:35.334Z,8.23
2023-02-03T04:19:35.509Z,8.23
2023-02-03T04:20:35.308Z,8.22
2023-02-03T04:21:35.291Z,8.23
2023-02-03T04:22:35.281Z,8.23
2023-02-03T04:23:35.269Z,8.23
2023-02-03T04:24:35.264Z,8.25
2023-02-03T04:25:35.263Z,8.25
2023-02-03T04:26:35.397Z,8.26
2023-02-03T04:27:35.227Z,8.26
2023-02-03T04:28:35.209Z,8.26
2023-02-03T04:29:35.205Z,8.26
2023-02-03T04:30:35.213Z,8.26
2023-02-03T04:31:35.175Z,8.25
2023-02-03T04:32:35.320Z,8.26
2023-02-03T04:33:35.127Z,8.25
2023-02-03T04:34:35.131Z,8.25
2023-02-03T04:35:35.119Z,8.26
2023-02-03T04:36:35.096Z,8.28
2023-02-03T04:37:35.122Z,8.28
2023-02-03T04:38:35.066Z,8.29
2023-02-03T04:39:35.244Z,8.30
2023-02-03T04:40:35.268Z,8.30
2023-02-03T04:41:35.025Z,8.33
2023-02-03T04:42:35.015Z,8.33
2023-02-03T04:43:35.011Z,8.33
2023-02-03T04:44:35.198Z,8.33
2023-02-03T04:45:34.993Z,8.30
2023-02-03T04:46:35.004Z,8.33
2023-02-03T04:47:34.987Z,8.34
2023-02-03T04:48:34.954Z,8.37
2023-02-03T04:49:35.103Z,8.37
2023-02-03T04:50:34.914Z,8.37
2023-02-03T04:51:34.897Z,8.36
2023-02-03T04:52:34.939Z,8.33
2023-02-03T04:53:34.873Z,8.34
2023-02-03T04:54:35.042Z,8.33
2023-02-03T04:55:34.853Z,8.33
2023-02-03T04:56:34.865Z,8.34
2023-02-03T04:57:35.002Z,8.36
2023-02-03T04:58:34.812Z,8.38
2023-02-03T04:59:34.802Z,8.40
2023-02-03T05:00:34.966Z,8.40
2023-02-03T05:01:34.776Z,8.41
2023-02-03T05:02:34.941Z,8.41
2023-02-03T05:03:34.940Z,8.41
2023-02-03T05:04:34.731Z,8.38
2023-02-03T05:05:34.718Z,8.38
2023-02-03T05:06:34.714Z,8.37
2023-02-03T05:07:34.727Z,8.37
2023-02-03T05:08:34.694Z,8.34
2023-02-03T05:09:34.668Z,8.37
2023-02-03T05:10:34.693Z,8.34
2023-02-03T05:11:34.645Z,8.36
2023-02-03T05:12:34.637Z,8.37
2023-02-03T05:13:34.800Z,8.38
2023-02-03T05:14:34.620Z,8.38
2023-02-03T05:15:34.621Z,8.40
2023-02-03T05:16:34.657Z,8.41
2023-02-03T05:17:34.568Z,8.41
2023-02-03T05:18:34.560Z,8.43
2023-02-03T05:19:34.736Z,8.41
2023-02-03T05:20:34.537Z,8.41
2023-02-03T05:21:34.518Z,8.41
2023-02-03T05:22:34.525Z,8.40
2023-02-03T05:23:36.658Z,8.40
2023-02-03T05:24:34.646Z,8.40
2023-02-03T05:25:34.639Z,8.43
2023-02-03T05:26:34.636Z,8.44
2023-02-03T05:27:34.456Z,8.44
2023-02-03T05:28:34.424Z,8.44
2023-02-03T05:29:34.422Z,8.43
2023-02-03T05:30:34.424Z,8.44
2023-02-03T05:31:34.451Z,8.44
2023-02-03T05:32:34.375Z,8.44
2023-02-03T05:33:34.356Z,8.44
2023-02-03T05:34:34.364Z,8.44
2023-02-03T05:35:34.335Z,8.43
2023-02-03T05:36:34.503Z,8.43
2023-02-03T05:37:34.310Z,8.41
2023-02-03T05:38:34.297Z,8.43
2023-02-03T05:39:34.467Z,8.43
2023-02-03T05:40:34.279Z,8.41
2023-02-03T05:41:34.268Z,8.38
2023-02-03T05:42:34.253Z,8.40
2023-02-03T05:43:34.244Z,8.38
2023-02-03T05:44:34.236Z,8.38
2023-02-03T05:45:34.238Z,8.41
2023-02-03T05:46:34.207Z,8.41
2023-02-03T05:47:34.182Z,8.43
2023-02-03T05:48:34.353Z,8.43
2023-02-03T05:49:34.340Z,8.40
2023-02-03T05:50:35.705Z,8.41
2023-02-03T05:51:34.130Z,8.41
2023-02-03T05:52:34.121Z,8.41
2023-02-03T05:53:34.110Z,8.43
2023-02-03T05:54:34.412Z,8.40
2023-02-03T05:55:34.283Z,8.40
2023-02-03T05:56:34.087Z,8.41
2023-02-03T05:57:34.221Z,8.40
2023-02-03T05:58:34.041Z,8.38
2023-02-03T05:59:34.029Z,8.40
2023-02-03T06:00:34.033Z,8.38
2023-02-03T06:01:34.037Z,8.38
2023-02-03T06:02:34.012Z,8.37
2023-02-03T06:03:34.009Z,8.36
2023-02-03T06:04:34.031Z,8.36
2023-02-03T06:05:33.948Z,8.36
2023-02-03T06:06:33.997Z,8.36
2023-02-03T06:07:34.027Z,8.36
2023-02-03T06:08:33.909Z,8.37
2023-02-03T06:09:33.904Z,8.38
2023-02-03T06:10:33.914Z,8.38
2023-02-03T06:11:33.871Z,8.38
2023-02-03T06:12:33.929Z,8.37
2023-02-03T06:13:33.848Z,8.38
2023-02-03T06:14:33.857Z,8.36
2023-02-03T06:15:33.828Z,8.36
2023-02-03T06:16:33.837Z,8.34
2023-02-03T06:17:33.848Z,8.36
2023-02-03T06:18:33.784Z,8.36
2023-02-03T06:19:33.793Z,8.38
2023-02-03T06:20:33.754Z,8.37
2023-02-03T06:21:33.749Z,8.36
2023-02-03T06:22:33.937Z,8.37
2023-02-03T06:23:33.714Z,8.37
2023-02-03T06:24:33.705Z,8.37
2023-02-03T06:25:33.698Z,8.38
2023-02-03T06:26:33.696Z,8.38
2023-02-03T06:27:33.716Z,8.38
2023-02-03T06:28:33.685Z,8.38
2023-02-03T06:29:33.813Z,8.41
2023-02-03T06:30:33.696Z,8.41
2023-02-03T06:31:33.704Z,8.41
2023-02-03T06:32:33.617Z,8.43
2023-02-03T06:33:33.594Z,8.43
2023-02-03T06:34:33.592Z,8.44
2023-02-03T06:35:33.617Z,8.43
2023-02-03T06:36:33.558Z,8.43
2023-02-03T06:37:33.537Z,8.41
2023-02-03T06:38:33.553Z,8.45
2023-02-03T06:39:33.510Z,8.44
2023-02-03T06:40:33.512Z,8.41
2023-02-03T06:41:33.483Z,8.44
2023-02-03T06:42:33.513Z,8.43
2023-02-03T06:43:33.475Z,8.43
2023-02-03T06:44:33.460Z,8.41
2023-02-03T06:45:33.501Z,8.43
2023-02-03T06:46:33.468Z,8.41
2023-02-03T06:47:33.426Z,8.44
2023-02-03T06:48:33.399Z,8.44
2023-02-03T06:49:33.380Z,8.44
2023-02-03T06:50:33.400Z,8.43
2023-02-03T06:51:33.408Z,8.43
2023-02-03T06:52:33.351Z,8.44
2023-02-03T06:53:33.338Z,8.44
2023-02-03T06:54:33.326Z,8.45
2023-02-03T06:55:33.307Z,8.45
2023-02-03T06:56:33.299Z,8.45
2023-02-03T06:57:33.290Z,8.44
2023-02-03T06:58:33.282Z,8.45
2023-02-03T06:59:33.271Z,8.44
2023-02-03T07:00:33.313Z,8.44
2023-02-03T07:01:33.312Z,8.44
2023-02-03T07:02:33.265Z,8.41
2023-02-03T07:03:33.193Z,8.40
2023-02-03T07:04:33.200Z,8.38
2023-02-03T07:05:33.182Z,8.40
2023-02-03T07:06:33.167Z,8.40
2023-02-03T07:07:33.167Z,8.38
2023-02-03T07:08:33.153Z,8.37
2023-02-03T07:09:33.311Z,8.36
2023-02-03T07:10:33.117Z,8.36
2023-02-03T07:11:33.104Z,8.34
2023-02-03T07:12:33.107Z,8.33
2023-02-03T07:13:33.076Z,8.30
2023-02-03T07:14:33.283Z,8.28
2023-02-03T07:15:33.148Z,8.28
2023-02-03T07:16:33.043Z,8.26
2023-02-03T07:17:33.012Z,8.26
2023-02-03T07:18:47.063Z,8.25
2023-02-03T07:19:33.995Z,8.23
2023-02-03T07:20:33.066Z,8.23
2023-02-03T07:21:32.985Z,8.22
2023-02-03T07:22:32.974Z,8.22
2023-02-03T07:23:32.942Z,8.22
2023-02-03T07:24:32.932Z,8.22
2023-02-03T07:25:32.945Z,8.22
2023-02-03T07:26:33.086Z,8.22
2023-02-03T07:27:32.967Z,8.23
2023-02-03T07:28:32.883Z,8.23
2023-02-03T07:29:32.885Z,8.23
2023-02-03T07:30:32.871Z,8.26
2023-02-03T07:31:32.996Z,8.25
2023-02-03T07:32:33.844Z,8.26
2023-02-03T07:33:32.829Z,8.25
2023-02-03T07:34:32.832Z,8.28
2023-02-03T07:35:32.819Z,8.29
2023-02-03T07:36:32.788Z,8.33
2023-02-03T07:37:32.769Z,8.33
2023-02-03T07:38:32.749Z,8.34
2023-02-03T07:39:32.740Z,8.34
2023-02-03T07:40:32.885Z,8.34
2023-02-03T07:41:32.789Z,8.36
2023-02-03T07:42:32.735Z,8.36
2023-02-03T07:43:32.680Z,8.34
2023-02-03T07:44:32.695Z,8.37
2023-02-03T07:45:32.700Z,8.36
2023-02-03T07:46:32.887Z,8.36
2023-02-03T07:47:32.636Z,8.37
2023-02-03T07:48:32.644Z,8.37
2023-02-03T07:49:32.610Z,8.37
2023-02-03T07:50:32.605Z,8.41
2023-02-03T07:51:32.621Z,8.41
2023-02-03T07:52:32.590Z,8.43
2023-02-03T07:53:32.579Z,8.45
2023-02-03T07:54:32.561Z,8.45
2023-02-03T07:55:32.548Z,8.47
2023-02-03T07:56:32.723Z,8.48
2023-02-03T07:57:32.508Z,8.50
2023-02-03T07:58:32.511Z,8.52
2023-02-03T07:59:32.481Z,8.55
2023-02-03T08:00:32.478Z,8.56
2023-02-03T08:01:32.500Z,8.56
2023-02-03T08:02:32.486Z,8.56
2023-02-03T08:03:32.725Z,8.55
2023-02-03T08:04:32.520Z,8.55
2023-02-03T08:05:32.577Z,8.55
2023-02-03T08:06:32.417Z,8.56
2023-02-03T08:07:32.493Z,8.56
2023-02-03T08:08:32.373Z,8.56
2023-02-03T08:09:32.356Z,8.53
2023-02-03T08:10:32.524Z,8.56
2023-02-03T08:11:32.370Z,8.56
2023-02-03T08:12:32.323Z,8.58
2023-02-03T08:13:32.304Z,8.58
2023-02-03T08:14:32.299Z,8.61
2023-02-03T08:15:32.271Z,8.62
2023-02-03T08:16:32.470Z,8.63
2023-02-03T08:17:32.460Z,8.62
2023-02-03T08:18:32.792Z,8.62
2023-02-03T08:19:32.219Z,8.61
2023-02-03T08:20:32.219Z,8.61
2023-02-03T08:21:32.211Z,8.61
2023-02-03T08:22:32.190Z,8.59
2023-02-03T08:23:32.170Z,8.61
2023-02-03T08:24:32.188Z,8.59
2023-02-03T08:25:32.350Z,8.59
2023-02-03T08:26:32.140Z,8.59
2023-02-03T08:27:32.139Z,8.59
2023-02-03T08:28:32.141Z,8.59
2023-02-03T08:29:32.116Z,8.61
2023-02-03T08:30:32.103Z,8.61
2023-02-03T08:31:32.150Z,8.59
2023-02-03T08:32:32.065Z,8.59
2023-02-03T08:33:32.037Z,8.59
2023-02-03T08:34:32.051Z,8.56
2023-02-03T08:35:32.185Z,8.56
2023-02-03T08:36:32.029Z,8.58
2023-02-03T08:37:32.031Z,8.58
2023-02-03T08:38:31.984Z,8.58
2023-02-03T08:39:31.967Z,8.61
2023-02-03T08:40:32.010Z,8.59
2023-02-03T08:41:31.956Z,8.59
2023-02-03T08:42:31.942Z,8.59
2023-02-03T08:43:31.957Z,8.58
2023-02-03T08:44:31.917Z,8.58
2023-02-03T08:45:31.917Z,8.61
2023-02-03T08:46:31.888Z,8.59
2023-02-03T08:47:32.045Z,8.59
2023-02-03T08:48:31.863Z,8.59
2023-02-03T08:49:31.845Z,8.58
2023-02-03T08:50:31.998Z,8.59
2023-02-03T08:51:31.814Z,8.61
2023-02-03T08:52:31.977Z,8.59
2023-02-03T08:53:31.998Z,8.61
2023-02-03T08:54:31.781Z,8.61
2023-02-03T08:55:31.762Z,8.59
2023-02-03T08:56:31.753Z,8.58
2023-02-03T08:57:31.738Z,8.58
2023-02-03T08:58:31.908Z,8.56
2023-02-03T08:59:31.716Z,8.56
2023-02-03T09:00:31.717Z,8.55
2023-02-03T09:01:31.753Z,8.56
2023-02-03T09:02:31.670Z,8.56
2023-02-03T09:03:31.686Z,8.58
2023-02-03T09:04:31.689Z,8.56
2023-02-03T09:05:31.643Z,8.56
2023-02-03T09:06:31.621Z,8.58
2023-02-03T09:07:31.786Z,8.56
2023-02-03T09:08:31.638Z,8.58
2023-02-03T09:09:31.582Z,8.56
2023-02-03T09:10:31.762Z,8.58
2023-02-03T09:11:31.559Z,8.59
2023-02-03T09:12:31.543Z,8.61
2023-02-03T09:13:31.549Z,8.61
2023-02-03T09:14:31.529Z,8.62
2023-02-03T09:15:31.501Z,8.62
2023-02-03T09:16:31.550Z,8.62
2023-02-03T09:17:31.498Z,8.62
2023-02-03T09:18:31.468Z,8.61
2023-02-03T09:19:31.457Z,8.61
2023-02-03T09:20:31.934Z,8.61
2023-02-03T09:21:33.817Z,8.61
2023-02-03T09:22:32.584Z,8.61
2023-02-03T09:23:31.405Z,8.59
2023-02-03T09:24:31.389Z,8.59
2023-02-03T09:25:31.374Z,8.61
2023-02-03T09:26:31.376Z,8.59
2023-02-03T09:27:31.687Z,8.59
2023-02-03T09:28:31.336Z,8.61
2023-02-03T09:29:31.337Z,8.59
2023-02-03T09:30:31.816Z,8.59
2023-02-03T09:31:31.352Z,8.61
2023-02-03T09:32:31.295Z,8.61
2023-02-03T09:33:31.285Z,8.61
2023-02-03T09:34:31.278Z,8.61
2023-02-03T09:35:31.254Z,8.61
2023-02-03T09:36:31.243Z,8.62
2023-02-03T09:37:31.407Z,8.63
2023-02-03T09:38:31.222Z,8.65
2023-02-03T09:39:31.207Z,8.66
2023-02-03T09:40:31.358Z,8.66
2023-02-03T09:41:31.332Z,8.68
2023-02-03T09:42:31.176Z,8.68
2023-02-03T09:43:31.184Z,8.68
2023-02-03T09:44:31.173Z,8.68
2023-02-03T09:45:31.175Z,8.68
2023-02-03T09:46:31.110Z,8.68
2023-02-03T09:47:31.277Z,8.70
2023-02-03T09:48:31.083Z,8.68
2023-02-03T09:49:31.068Z,8.70
2023-02-03T09:50:31.126Z,8.70
2023-02-03T09:51:31.047Z,8.71
2023-02-03T09:52:31.209Z,8.71
2023-02-03T09:53:31.240Z,8.71
2023-02-03T09:54:31.035Z,8.73
2023-02-03T09:55:31.006Z,8.71
2023-02-03T09:56:30.984Z,8.71
2023-02-03T09:57:30.989Z,8.70
2023-02-03T09:58:31.139Z,8.70
2023-02-03T09:59:30.938Z,8.70
2023-02-03T10:00:30.927Z,8.70
2023-02-03T10:01:30.990Z,8.71
2023-02-03T10:02:30.920Z,8.73
2023-02-03T10:03:31.048Z,8.74
2023-02-03T10:04:30.876Z,8.74
2023-02-03T10:05:30.864Z,8.74
2023-02-03T10:06:30.862Z,8.74
2023-02-03T10:07:30.860Z,8.76
2023-02-03T10:08:31.001Z,8.76
2023-02-03T10:09:30.838Z,8.74
2023-02-03T10:10:30.967Z,8.76
2023-02-03T10:11:30.794Z,8.74
2023-02-03T10:12:30.885Z,8.74
2023-02-03T10:13:30.769Z,8.74
2023-02-03T10:14:30.755Z,8.76
2023-02-03T10:15:30.912Z,8.76
2023-02-03T10:16:30.756Z,8.77
2023-02-03T10:17:30.752Z,8.77
2023-02-03T10:18:30.697Z,8.77
2023-02-03T10:19:30.854Z,8.77
2023-02-03T10:20:30.679Z,8.77
2023-02-03T10:21:30.655Z,8.80
2023-02-03T10:22:30.644Z,8.77
2023-02-03T10:23:30.628Z,8.80
2023-02-03T10:24:30.787Z,8.80
2023-02-03T10:25:30.606Z,8.79
2023-02-03T10:26:30.612Z,8.79
2023-02-03T10:27:30.578Z,8.79
2023-02-03T10:28:30.560Z,8.79
2023-02-03T10:29:30.551Z,8.79
2023-02-03T10:30:31.229Z,8.79
2023-02-03T10:31:30.767Z,8.77
2023-02-03T10:32:30.532Z,8.77
2023-02-03T10:33:30.543Z,8.80
2023-02-03T10:34:30.490Z,8.79
2023-02-03T10:35:30.650Z,8.79
2023-02-03T10:36:30.462Z,8.79
2023-02-03T10:37:30.751Z,8.80
2023-02-03T10:38:30.448Z,8.80
2023-02-03T10:39:30.424Z,8.80
2023-02-03T10:40:30.781Z,8.83
2023-02-03T10:41:30.424Z,8.81
2023-02-03T10:42:30.401Z,8.81
2023-02-03T10:43:30.369Z,8.83
2023-02-03T10:44:30.369Z,8.86
2023-02-03T10:45:30.355Z,8.84
2023-02-03T10:46:30.412Z,8.86
2023-02-03T10:47:30.511Z,8.84
2023-02-03T10:48:30.301Z,8.86
2023-02-03T10:49:30.293Z,8.86
2023-02-03T10:50:30.876Z,8.86
2023-02-03T10:51:30.306Z,8.89
2023-02-03T10:52:30.264Z,8.87
2023-02-03T10:53:30.253Z,8.91
2023-02-03T10:54:30.291Z,8.91
2023-02-03T10:55:30.220Z,8.91
2023-02-03T10:56:30.200Z,8.91
2023-02-03T10:57:30.374Z,8.94
2023-02-03T10:58:30.182Z,8.92
2023-02-03T10:59:30.177Z,8.94
2023-02-03T11:00:30.574Z,8.94
2023-02-03T11:01:30.214Z,8.94
2023-02-03T11:02:30.195Z,8.94
2023-02-03T11:03:30.104Z,8.95
2023-02-03T11:04:30.275Z,8.98
2023-02-03T11:05:30.161Z,8.98
2023-02-03T11:06:30.143Z,9.01
2023-02-03T11:07:30.175Z,9.02
2023-02-03T11:08:30.084Z,9.02
2023-02-03T11:09:30.371Z,9.04
2023-02-03T11:10:30.478Z,9.02
2023-02-03T11:11:30.036Z,9.02
2023-02-03T11:12:29.995Z,9.04
2023-02-03T11:13:29.983Z,9.04
2023-02-03T11:14:29.970Z,9.04
2023-02-03T11:15:30.110Z,9.04
2023-02-03T11:16:29.952Z,9.05
2023-02-03T11:17:29.940Z,9.05
2023-02-03T11:18:29.912Z,9.05
2023-02-03T11:19:29.903Z,9.05
2023-02-03T11:20:30.301Z,9.08
2023-02-03T11:21:30.073Z,9.10
2023-02-03T11:22:29.879Z,9.11
2023-02-03T11:23:29.852Z,9.13
2023-02-03T11:24:29.846Z,9.14
2023-02-03T11:25:29.847Z,9.14
2023-02-03T11:26:29.810Z,9.17
2023-02-03T11:27:30.017Z,9.15
2023-02-03T11:28:29.816Z,9.17
2023-02-03T11:29:29.790Z,9.18
2023-02-03T11:30:29.941Z,9.20
2023-02-03T11:31:29.876Z,9.20
2023-02-03T11:32:29.780Z,9.20
2023-02-03T11:33:29.727Z,9.20
2023-02-03T11:34:29.733Z,9.20
2023-02-03T11:35:29.707Z,9.20
2023-02-03T11:36:29.691Z,9.21
2023-02-03T11:37:29.714Z,9.23
2023-02-03T11:38:29.671Z,9.23
2023-02-03T11:39:29.956Z,9.24
2023-02-03T11:40:29.996Z,9.24
2023-02-03T11:41:29.629Z,9.24
2023-02-03T11:42:29.611Z,9.24
2023-02-03T11:43:29.599Z,9.24
2023-02-03T11:44:29.776Z,9.24
2023-02-03T11:45:29.585Z,9.23
2023-02-03T11:46:29.567Z,9.24
2023-02-03T11:47:29.552Z,9.24
2023-02-03T11:48:29.542Z,9.26
2023-02-03T11:49:29.515Z,9.26
2023-02-03T11:50:29.899Z,9.28
2023-02-03T11:51:29.525Z,9.29
2023-02-03T11:52:29.510Z,9.31
2023-02-03T11:53:29.481Z,9.33
2023-02-03T11:54:29.447Z,9.33
2023-02-03T11:55:29.456Z,9.33
2023-02-03T11:56:29.426Z,9.33
2023-02-03T11:57:29.405Z,9.35
2023-02-03T11:58:29.415Z,9.33
2023-02-03T11:59:29.403Z,9.36
2023-02-03T12:00:29.702Z,9.35
2023-02-03T12:01:29.359Z,9.36
2023-02-03T12:02:29.605Z,9.35
2023-02-03T12:03:29.333Z,9.38
2023-02-03T12:04:29.376Z,9.36
2023-02-03T12:05:29.307Z,9.39
2023-02-03T12:06:29.475Z,9.40
2023-02-03T12:07:29.300Z,9.39
2023-02-03T12:08:29.282Z,9.40
2023-02-03T12:09:29.276Z,9.40
2023-02-03T12:10:29.692Z,9.40
2023-02-03T12:11:29.403Z,9.40
2023-02-03T12:12:29.220Z,9.40
2023-02-03T12:13:29.202Z,9.42
2023-02-03T12:14:29.393Z,9.40
2023-02-03T12:15:29.177Z,9.43
2023-02-03T12:16:29.225Z,9.42
2023-02-03T12:17:29.161Z,9.42
2023-02-03T12:18:29.147Z,9.42
2023-02-03T12:19:29.301Z,9.40
2023-02-03T12:20:29.479Z,9.40
2023-02-03T12:21:29.121Z,9.42
2023-02-03T12:22:29.104Z,9.42
2023-02-03T12:23:29.080Z,9.42
2023-02-03T12:24:29.240Z,9.42
2023-02-03T12:25:29.061Z,9.42
2023-02-03T12:26:29.040Z,9.43
2023-02-03T12:27:29.033Z,9.43
2023-02-03T12:28:33.667Z,9.40
2023-02-03T12:29:31.938Z,9.40
2023-02-03T12:30:29.548Z,9.42
2023-02-03T12:31:29.076Z,9.42
2023-02-03T12:32:29.202Z,9.42
2023-02-03T12:33:28.970Z,9.42
2023-02-03T12:34:28.949Z,9.42
2023-02-03T12:35:30.561Z,9.43
2023-02-03T12:36:28.927Z,9.43
2023-02-03T12:37:28.897Z,9.42
2023-02-03T12:38:28.887Z,9.40
2023-02-03T12:39:28.905Z,9.39
2023-02-03T12:40:29.078Z,9.38
2023-02-03T12:41:28.840Z,9.38
2023-02-03T12:42:28.838Z,9.36
2023-02-03T12:43:28.814Z,9.36
2023-02-03T12:44:28.806Z,9.36
2023-02-03T12:45:28.845Z,9.36
2023-02-03T12:46:28.775Z,9.35
2023-02-03T12:47:28.765Z,9.35
2023-02-03T12:48:28.756Z,9.35
2023-02-03T12:49:28.781Z,9.35
2023-02-03T12:50:29.114Z,9.36
2023-02-03T12:51:28.733Z,9.36
2023-02-03T12:52:28.719Z,9.38
2023-02-03T12:53:29.420Z,9.38
2023-02-03T12:54:28.674Z,9.38
2023-02-03T12:55:28.673Z,9.40
2023-02-03T12:56:28.659Z,9.39
2023-02-03T12:57:28.653Z,9.39
2023-02-03T12:58:28.652Z,9.40
2023-02-03T12:59:28.603Z,9.40
2023-02-03T13:00:28.891Z,9.40
2023-02-03T13:01:28.699Z,9.42
2023-02-03T13:02:28.603Z,9.42
2023-02-03T13:03:28.552Z,9.46
2023-02-03T13:04:28.558Z,9.47
2023-02-03T13:05:28.532Z,9.46
2023-02-03T13:06:28.703Z,9.47
2023-02-03T13:07:28.703Z,9.47
2023-02-03T13:08:28.503Z,9.48
2023-02-03T13:09:28.510Z,9.50
2023-02-03T13:10:28.811Z,9.50
2023-02-03T13:11:28.452Z,9.51
2023-02-03T13:12:28.441Z,9.53
2023-02-03T13:13:28.452Z,9.54
2023-02-03T13:14:28.613Z,9.54
2023-02-03T13:15:28.402Z,9.54
2023-02-03T13:16:28.425Z,9.53
2023-02-03T13:17:28.390Z,9.54
2023-02-03T13:18:28.379Z,9.57